• Join FlightAware (Why Join?)
  • Login
  • US Flag 
09:04AM EST


 

Airport Tracker/Info


-or-


 

Live Flight TrackerFlight Track Log ✈ CJT620 ✈ 17-Apr-2013 ✈ CYQM - CYHZ

Flight Track Log - Related Links

Times and Time Zones

All times are in EDT time to prevent confusion due to time zone crossing. See the CJT620 flight status page for this flight to view local times or setup timezone preferences in your user account.

Time Position Orientation Groundspeed Altitude Reporting Facility
EDT Latitude Longitude Course Direction KTS MPH feet Rate Location/Type
02:44AM 46.0667 -64.7833 226° Southwest 190 219 5,800  Level Moncton Center
02:45AM 46.0167 -64.7167 137° Southeast 290 334 9,900 2,880 Climbing Moncton Center
02:46AM 45.9500 -64.6167 134° Southeast 340 391 11,600 2,040 Climbing Moncton Center
02:47AM 45.8667 -64.5000 136° Southeast 400 460 14,000 1,680 Climbing Moncton Center
02:48AM 45.9124 -64.3003 152° Southeast  Level FlightAware Approximate
02:48AM 45.7833 -64.3667 132° Southeast 430 495 15,000  Level Moncton Center
02:49AM 45.7000 -64.2500 136° Southeast 430 495 14,900 -60 Descending Moncton Center
02:50AM 45.6000 -64.1333 141° Southeast 440 506 14,900 -600 Level Moncton Center
02:51AM 45.5167 -63.9833 128° Southeast 430 495 13,700 -1,740 Descending Moncton Center
02:52AM 45.4333 -63.9000 145° Southeast 420 483 11,500 -1,620 Descending Moncton Center
02:53AM 45.3500 -63.7833 135° Southeast 400 460 10,500 -840 Descending Moncton Center
02:54AM 45.3000 -63.6833 125° Southeast 350 403 9,900 -1,020 Descending Moncton Center
02:55AM 45.2333 -63.5833 133° Southeast 320 368 8,500 -1,320 Descending Moncton Center
02:56AM 45.1667 -63.5000 139° Southeast 300 345 7,300 -1,260 Descending Moncton Center
02:57AM 45.1167 -63.4333 137° Southeast 280 322 6,000 -1,200 Descending Moncton Center
02:58AM 45.0833 -63.3500 120° Southeast 240 276 4,900 -840 Descending Moncton Center
02:59AM 45.0333 -63.3333 167° South 200 230 4,400 -660 Descending Moncton Center
03:00AM 45.0000 -63.3500 199° South 140 161 3,600 -780 Descending Moncton Center
03:01AM 44.9667 -63.4000 227° Southwest 130 150 2,900 -720 Descending Moncton Center
03:02AM 44.9333 -63.4333 215° Southwest 120 138 2,200 -600 Descending Moncton Center
03:03AM 44.9167 -63.4500 215° Southwest 100 115 1,700 -600 Descending Moncton Center
03:04AM 44.9000 -63.4833 235° Southwest 100 115 1,100 -600 Descending Moncton Center
03:05AM 44.8667 -63.5000 200° South 110 127 500 -600 Descending Moncton Center